Time;durP1;ratioP1;P1;durP2;ratioP2;P2;SDS_P1;SDS_P2;PMS_P1;PMS_P2;Temp;Humidity;BMP_temperature;BMP_pressure;BME280_temperature;BME280_humidity;BME280_pressure;Samples;Min_cycle;Max_cycle;Signal;HPM_P1;HPM_P2
2022/09/26 00:00:42;;;;;;;5.70;1.77;;;10.50;99.90;;;;;;5032800;28;20045;-72
2022/09/26 00:03:09;;;;;;;8.38;2.20;;;10.60;99.90;;;;;;5032622;28;20059;-72
2022/09/26 00:05:35;;;;;;;5.65;1.75;;;10.80;99.90;;;;;;5031921;28;20382;-69
2022/09/26 00:08:02;;;;;;;8.40;2.05;;;10.50;99.90;;;;;;5015032;28;20045;-71
2022/09/26 00:10:28;;;;;;;5.10;2.05;;;10.50;99.90;;;;;;5032597;28;20051;-69
2022/09/26 00:12:54;;;;;;;8.07;2.05;;;10.50;99.90;;;;;;5013894;28;20080;-71
2022/09/26 00:15:20;;;;;;;5.65;2.00;;;10.60;99.90;;;;;;5014305;28;20061;-71
2022/09/26 00:17:45;;;;;;;5.80;2.25;;;10.60;99.90;;;;;;5032585;28;20041;-71
2022/09/26 00:20:11;;;;;;;8.80;2.42;;;10.90;99.90;;;;;;5033402;28;20048;-71
2022/09/26 00:22:36;;;;;;;6.05;2.00;;;10.50;99.90;;;;;;5033513;28;20489;-70
2022/09/26 00:25:03;;;;;;;5.97;2.00;;;10.60;99.90;;;;;;5033192;28;20064;-71
2022/09/26 00:27:29;;;;;;;7.30;2.10;;;10.50;99.90;;;;;;5033369;28;20045;-69
2022/09/26 00:29:54;;;;;;;6.55;2.40;;;10.50;99.90;;;;;;5016296;28;20068;-72
2022/09/26 00:32:20;;;;;;;8.07;2.13;;;10.50;99.90;;;;;;5033345;28;20053;-71
2022/09/26 00:34:46;;;;;;;6.68;1.80;;;10.50;99.90;;;;;;5033167;28;20046;-71
2022/09/26 00:37:12;;;;;;;10.43;2.47;;;10.50;99.90;;;;;;5033503;28;20052;-72
2022/09/26 00:39:37;;;;;;;8.88;2.95;;;10.40;99.90;;;;;;5022069;28;20471;-74
2022/09/26 00:42:03;;;;;;;7.82;2.22;;;10.40;99.90;;;;;;5021293;28;20140;-72
2022/09/26 00:44:43;;;;;;;5.32;2.10;;;10.70;99.90;;;;;;5020871;28;20049;-70
2022/09/26 00:47:36;;;;;;;6.47;2.33;;;10.40;99.90;;;;;;5007221;28;20046;-72
2022/09/26 00:50:27;;;;;;;6.65;2.28;;;10.30;99.90;;;;;;5037885;28;20072;-73
2022/09/26 00:53:01;;;;;;;6.45;2.75;;;10.30;99.90;;;;;;5037550;28;20049;-71
2022/09/26 00:55:33;;;;;;;8.10;3.65;;;10.30;99.90;;;;;;5023242;28;20056;-71
2022/09/26 00:58:07;;;;;;;6.32;2.80;;;10.20;99.90;;;;;;5036480;28;20045;-72
2022/09/26 01:00:33;;;;;;;10.93;3.00;;;10.20;99.90;;;;;;5001406;28;20054;-72
2022/09/26 01:03:00;;;;;;;6.68;2.55;;;10.50;99.90;;;;;;5035737;28;20041;-71
2022/09/26 01:05:25;;;;;;;6.55;2.53;;;10.20;99.90;;;;;;5018034;28;20493;-70
2022/09/26 01:07:54;;;;;;;10.63;2.63;;;10.10;99.90;;;;;;5000714;28;20053;-72
2022/09/26 01:10:23;;;;;;;6.68;2.60;;;10.20;99.90;;;;;;5035414;28;20052;-72
2022/09/26 01:12:49;;;;;;;6.10;2.38;;;10.10;99.90;;;;;;5017656;28;20444;-71
2022/09/26 01:15:15;;;;;;;7.93;2.65;;;10.10;99.90;;;;;;5035780;28;20053;-70
2022/09/26 01:17:43;;;;;;;8.70;2.25;;;10.10;99.90;;;;;;5035630;28;20305;-70
2022/09/26 01:20:30;;;;;;;6.85;2.45;;;10.10;99.90;;;;;;5035656;28;20037;-72
2022/09/26 01:23:33;;;;;;;6.85;2.20;;;10.10;99.90;;;;;;5035128;28;20497;-70
2022/09/26 01:26:25;;;;;;;6.10;2.40;;;10.20;99.90;;;;;;5035296;28;20132;-70
2022/09/26 01:29:15;;;;;;;7.60;2.40;;;10.10;99.90;;;;;;5017641;28;20049;-71
2022/09/26 01:35:11;;;;;;;6.63;1.98;;;10.10;99.90;;;;;;5035650;28;20045;-71
2022/09/26 01:37:48;;;;;;;7.57;2.33;;;10.10;99.90;;;;;;5036477;28;20055;-71
2022/09/26 01:40:20;;;;;;;4.78;1.95;;;10.10;99.90;;;;;;5019254;28;20064;-71
2022/09/26 01:42:57;;;;;;;6.78;1.90;;;10.10;99.90;;;;;;5002866;28;20041;-70
2022/09/26 01:45:31;;;;;;;7.10;2.58;;;10.10;99.90;;;;;;5006319;28;20053;-71
2022/09/26 01:48:07;;;;;;;5.28;1.88;;;10.20;99.90;;;;;;5019497;28;20099;-71
2022/09/26 01:50:40;;;;;;;6.75;2.00;;;10.10;99.90;;;;;;5036939;28;20128;-71
2022/09/26 01:53:14;;;;;;;6.75;2.25;;;10.10;99.90;;;;;;5020381;28;20095;-71
2022/09/26 01:55:47;;;;;;;5.55;2.10;;;10.20;99.90;;;;;;5018453;28;20436;-70
2022/09/26 01:58:16;;;;;;;5.20;2.00;;;10.20;99.90;;;;;;5003125;28;20056;-71
2022/09/26 02:00:45;;;;;;;8.00;2.30;;;10.20;99.90;;;;;;5002670;28;20088;-71
2022/09/26 02:03:26;;;;;;;5.47;1.80;;;10.20;99.90;;;;;;5036760;28;20562;-70
2022/09/26 02:06:21;;;;;;;7.63;2.05;;;10.20;99.90;;;;;;5036432;28;20052;-72
2022/09/26 02:09:00;;;;;;;6.10;1.75;;;10.30;99.90;;;;;;4956344;29;20507;-71
2022/09/26 02:11:28;;;;;;;7.05;2.08;;;10.20;99.90;;;;;;4955460;29;20047;-72
2022/09/26 02:14:10;;;;;;;7.47;1.90;;;10.30;99.90;;;;;;4956830;29;20558;-71
2022/09/26 02:16:49;;;;;;;5.63;1.80;;;10.30;99.90;;;;;;4954253;29;20043;-72
2022/09/26 02:19:18;;;;;;;8.70;2.22;;;10.30;99.90;;;;;;4953830;29;20527;-70
2022/09/26 02:21:44;;;;;;;6.40;1.95;;;10.30;99.90;;;;;;4938590;29;20055;-70
2022/09/26 02:24:10;;;;;;;6.65;2.47;;;10.70;99.90;;;;;;4954013;29;20059;-70
2022/09/26 02:26:36;;;;;;;6.60;2.17;;;10.40;99.90;;;;;;4953779;29;20122;-71
2022/09/26 02:29:02;;;;;;;9.75;2.00;;;10.40;99.90;;;;;;4953925;29;20384;-71
2022/09/26 02:31:34;;;;;;;7.65;1.83;;;10.40;99.90;;;;;;4954064;29;20062;-74
2022/09/26 02:34:02;;;;;;;6.95;2.10;;;10.60;99.90;;;;;;4953751;29;20098;-75
2022/09/26 02:36:32;;;;;;;6.97;2.05;;;10.40;99.90;;;;;;4937790;29;20491;-73
2022/09/26 02:38:58;;;;;;;7.65;2.10;;;10.60;99.90;;;;;;4937799;29;20471;-75
2022/09/26 02:41:47;;;;;;;4.97;1.90;;;10.60;99.90;;;;;;4921654;29;20051;-72
2022/09/26 02:44:33;;;;;;;7.50;1.90;;;10.50;99.90;;;;;;4942562;29;20558;-70
2022/09/26 02:47:05;;;;;;;9.63;2.58;;;10.50;99.90;;;;;;5015929;28;20557;-71
2022/09/26 02:49:55;;;;;;;8.25;2.75;;;10.50;99.90;;;;;;5015849;28;20060;-72
2022/09/26 02:52:46;;;;;;;6.50;2.03;;;10.50;99.90;;;;;;5016410;28;20441;-72
2022/09/26 02:55:28;;;;;;;7.00;2.40;;;10.60;99.90;;;;;;5016096;28;20115;-71
2022/09/26 02:58:15;;;;;;;8.82;2.22;;;10.80;99.90;;;;;;5033373;28;20440;-71
2022/09/26 03:00:59;;;;;;;8.85;2.38;;;10.60;99.90;;;;;;4999753;28;20107;-76
2022/09/26 03:03:39;;;;;;;6.60;2.70;;;10.60;99.90;;;;;;5033651;28;20042;-75
2022/09/26 03:06:08;;;;;;;6.35;2.13;;;10.60;99.90;;;;;;5033677;28;20096;-75
2022/09/26 03:08:45;;;;;;;6.70;2.53;;;10.60;99.90;;;;;;5033578;28;20052;-75
2022/09/26 03:11:14;;;;;;;8.40;2.65;;;10.60;99.90;;;;;;5016060;28;20037;-75
2022/09/26 03:13:42;;;;;;;7.40;2.55;;;10.60;99.90;;;;;;5015435;28;20089;-73
2022/09/26 03:16:09;;;;;;;6.82;2.25;;;10.60;99.90;;;;;;5015951;28;20041;-71
2022/09/26 03:18:46;;;;;;;7.03;2.33;;;10.60;99.90;;;;;;5033054;28;20052;-73
2022/09/26 03:21:13;;;;;;;7.97;2.45;;;10.60;99.90;;;;;;5033572;28;20038;-75
2022/09/26 03:23:39;;;;;;;7.03;2.55;;;10.70;99.90;;;;;;5033379;28;20041;-72
2022/09/26 03:26:12;;;;;;;6.75;2.20;;;10.50;99.90;;;;;;5033114;28;20084;-71
2022/09/26 03:28:38;;;;;;;9.77;2.67;;;10.60;99.90;;;;;;5032883;28;20124;-73
2022/09/26 03:31:04;;;;;;;7.65;2.58;;;10.50;99.90;;;;;;5015923;28;20067;-73
2022/09/26 03:33:33;;;;;;;8.52;2.70;;;10.50;99.90;;;;;;5033038;28;20056;-74
2022/09/26 03:35:59;;;;;;;8.88;2.70;;;10.50;99.90;;;;;;5015849;28;20132;-73
2022/09/26 03:38:25;;;;;;;8.73;2.70;;;10.50;99.90;;;;;;5032813;28;20045;-75
2022/09/26 03:40:52;;;;;;;9.73;2.80;;;10.40;99.90;;;;;;5015284;28;20033;-73
2022/09/26 03:43:18;;;;;;;8.30;2.63;;;10.40;99.90;;;;;;5015295;28;20595;-72
2022/09/26 03:45:43;;;;;;;8.40;2.88;;;10.40;99.90;;;;;;5014833;28;20045;-72
2022/09/26 03:48:09;;;;;;;12.32;3.17;;;10.40;99.90;;;;;;5014975;28;20045;-75
2022/09/26 03:50:35;;;;;;;9.88;3.17;;;10.50;99.90;;;;;;5032910;28;20033;-75
2022/09/26 03:53:01;;;;;;;10.02;3.05;;;10.40;99.90;;;;;;5032805;28;20119;-73
2022/09/26 03:55:27;;;;;;;7.72;2.88;;;10.40;99.90;;;;;;5032442;28;20041;-70
2022/09/26 03:57:54;;;;;;;10.50;3.03;;;10.30;99.90;;;;;;5032586;28;20049;-75
2022/09/26 04:00:20;;;;;;;7.40;2.67;;;10.30;99.90;;;;;;5032129;28;20050;-71
2022/09/26 04:02:46;;;;;;;10.25;3.47;;;10.40;99.90;;;;;;5032369;28;20128;-71
2022/09/26 04:05:11;;;;;;;10.15;3.60;;;10.30;99.90;;;;;;5032732;28;20445;-70
2022/09/26 04:07:37;;;;;;;8.50;3.78;;;10.30;99.90;;;;;;5032469;28;20477;-70
2022/09/26 04:10:03;;;;;;;7.85;3.05;;;10.30;99.90;;;;;;5014748;28;20056;-68
2022/09/26 04:12:31;;;;;;;8.80;3.75;;;10.40;99.90;;;;;;5032325;28;20073;-70
2022/09/26 04:14:57;;;;;;;8.93;3.63;;;10.30;99.90;;;;;;5032050;28;20049;-70
2022/09/26 04:17:22;;;;;;;8.85;3.38;;;10.50;99.90;;;;;;5014456;28;20107;-69
2022/09/26 04:19:48;;;;;;;8.10;3.53;;;10.30;99.90;;;;;;5014827;28;20132;-68
2022/09/26 04:22:13;;;;;;;9.13;3.70;;;10.40;99.90;;;;;;5015054;28;20053;-69
2022/09/26 04:24:40;;;;;;;9.43;3.53;;;10.30;99.90;;;;;;5014573;28;20041;-70
2022/09/26 04:27:07;;;;;;;10.25;3.80;;;10.30;99.90;;;;;;5032370;28;20096;-71
2022/09/26 04:29:33;;;;;;;10.95;3.90;;;10.30;99.90;;;;;;5032397;28;20081;-69
2022/09/26 04:31:59;;;;;;;12.02;4.43;;;10.40;99.90;;;;;;4997359;28;20113;-70
2022/09/26 04:34:25;;;;;;;11.57;4.53;;;10.30;99.90;;;;;;4997632;28;20053;-72
2022/09/26 04:36:51;;;;;;;9.63;4.13;;;10.40;99.90;;;;;;5014905;28;20121;-71
2022/09/26 04:39:17;;;;;;;11.18;4.55;;;10.30;99.90;;;;;;5032199;28;20149;-74
2022/09/26 04:41:43;;;;;;;11.43;4.68;;;10.30;99.90;;;;;;5032086;28;20046;-70
2022/09/26 04:44:09;;;;;;;13.00;4.50;;;10.30;99.90;;;;;;5032188;28;20091;-72
2022/09/26 04:46:35;;;;;;;13.15;5.13;;;10.30;99.90;;;;;;5032076;28;20037;-70
2022/09/26 04:49:01;;;;;;;13.40;5.07;;;10.30;99.90;;;;;;5014471;28;20041;-70
2022/09/26 04:51:30;;;;;;;12.07;4.78;;;10.30;99.90;;;;;;5032062;28;20517;-74
2022/09/26 04:53:56;;;;;;;15.80;4.53;;;10.20;99.90;;;;;;5014366;28;20107;-70
2022/09/26 04:56:25;;;;;;;10.60;4.65;;;10.30;99.90;;;;;;5032025;28;20042;-70
2022/09/26 04:58:54;;;;;;;11.00;5.25;;;10.20;99.90;;;;;;5031933;28;20080;-73
2022/09/26 05:01:20;;;;;;;12.55;4.70;;;10.40;99.90;;;;;;5015034;28;20053;-73
2022/09/26 05:03:46;;;;;;;13.35;5.30;;;10.20;99.90;;;;;;5013973;28;20495;-71
2022/09/26 05:06:13;;;;;;;16.25;6.05;;;10.30;99.90;;;;;;5032123;28;20053;-74
2022/09/26 05:08:40;;;;;;;11.75;5.20;;;10.20;99.90;;;;;;5032167;28;20045;-74
2022/09/26 05:11:07;;;;;;;13.88;5.35;;;10.50;99.90;;;;;;5031818;28;20033;-74
2022/09/26 05:13:34;;;;;;;13.68;6.45;;;10.20;99.90;;;;;;5032149;28;20116;-74
2022/09/26 05:16:01;;;;;;;12.98;5.95;;;10.20;99.90;;;;;;5032222;28;20045;-74
2022/09/26 05:18:29;;;;;;;11.27;5.55;;;10.20;99.90;;;;;;5032298;28;20408;-68
2022/09/26 05:20:56;;;;;;;11.90;5.72;;;10.30;99.90;;;;;;5031657;28;20532;-71
2022/09/26 05:26:19;;;;;;;15.40;5.45;;;10.20;99.90;;;;;;5033519;28;20049;-70
2022/09/26 05:28:56;;;;;;;12.02;5.25;;;10.30;99.90;;;;;;5035832;28;20052;-70
2022/09/26 05:31:27;;;;;;;10.88;5.32;;;10.20;99.90;;;;;;5017895;28;20120;-69
2022/09/26 05:33:56;;;;;;;11.70;5.32;;;10.50;99.90;;;;;;5034538;28;20513;-69
2022/09/26 05:36:23;;;;;;;11.02;5.80;;;10.20;99.90;;;;;;5034452;28;20045;-69
2022/09/26 05:38:49;;;;;;;13.05;6.20;;;10.20;99.90;;;;;;5016398;28;20081;-70
2022/09/26 05:41:15;;;;;;;15.75;6.28;;;10.30;99.90;;;;;;5034613;28;20087;-68
2022/09/26 05:43:40;;;;;;;12.75;5.80;;;10.20;99.90;;;;;;5034542;28;20133;-67
2022/09/26 05:46:09;;;;;;;11.25;5.28;;;10.30;99.90;;;;;;5034514;28;20100;-71
2022/09/26 05:48:37;;;;;;;11.45;6.10;;;10.30;99.90;;;;;;5016182;28;20140;-72
2022/09/26 05:51:15;;;;;;;13.40;5.10;;;10.30;99.90;;;;;;5033654;28;20537;-68
2022/09/26 05:53:44;;;;;;;14.68;5.10;;;10.30;99.90;;;;;;5012914;28;20474;-69
2022/09/26 05:56:11;;;;;;;12.52;4.82;;;10.30;99.90;;;;;;4983005;28;20409;-69
2022/09/26 05:58:38;;;;;;;11.60;5.45;;;10.40;99.90;;;;;;4996862;28;20049;-69
2022/09/26 06:01:06;;;;;;;15.25;5.10;;;10.30;99.90;;;;;;5015200;28;20096;-70
2022/09/26 06:03:33;;;;;;;13.18;5.93;;;10.40;99.90;;;;;;5013319;28;20053;-69
2022/09/26 06:06:10;;;;;;;12.85;5.35;;;10.30;99.90;;;;;;5016535;28;20489;-70
2022/09/26 06:08:38;;;;;;;11.63;5.55;;;10.30;99.90;;;;;;4979126;28;20054;-71
2022/09/26 06:11:07;;;;;;;13.38;5.05;;;10.30;99.90;;;;;;5017243;28;20044;-69
2022/09/26 06:13:33;;;;;;;11.25;5.25;;;10.30;99.90;;;;;;5012389;28;20054;-67
2022/09/26 06:16:04;;;;;;;10.68;5.20;;;10.30;99.90;;;;;;5013369;28;20038;-70
2022/09/26 06:18:35;;;;;;;11.67;4.80;;;10.30;99.90;;;;;;4994885;28;20053;-69
2022/09/26 06:21:06;;;;;;;12.38;5.30;;;10.30;99.90;;;;;;5012815;28;20120;-70
2022/09/26 06:23:35;;;;;;;12.10;5.33;;;10.30;99.90;;;;;;4980391;28;20050;-68
2022/09/26 06:26:03;;;;;;;11.27;4.78;;;10.20;99.90;;;;;;5013791;28;20052;-71
2022/09/26 06:28:29;;;;;;;11.98;5.00;;;10.20;99.90;;;;;;5014147;28;20045;-72
2022/09/26 06:30:56;;;;;;;13.65;5.53;;;10.30;99.90;;;;;;5013449;28;20042;-72
2022/09/26 06:33:22;;;;;;;11.25;5.07;;;10.30;99.90;;;;;;4996515;28;20053;-68
2022/09/26 06:36:09;;;;;;;20.83;5.93;;;10.30;99.90;;;;;;5013141;28;20049;-70
2022/09/26 06:38:36;;;;;;;11.45;5.28;;;10.30;99.90;;;;;;4995759;28;20092;-69
2022/09/26 06:41:02;;;;;;;12.75;5.22;;;10.40;99.90;;;;;;5014010;28;20434;-68
2022/09/26 06:43:28;;;;;;;11.18;4.63;;;10.30;99.90;;;;;;5013716;28;20092;-68
2022/09/26 06:45:54;;;;;;;13.25;5.38;;;10.30;99.90;;;;;;5012425;28;20405;-70
2022/09/26 06:48:26;;;;;;;12.35;5.13;;;10.30;99.90;;;;;;5015820;28;20037;-70
2022/09/26 06:50:53;;;;;;;10.45;4.53;;;10.30;99.90;;;;;;4997134;28;20501;-69
2022/09/26 06:53:20;;;;;;;11.95;4.32;;;10.30;99.90;;;;;;4994182;28;20054;-70
2022/09/26 06:55:45;;;;;;;10.32;4.57;;;10.30;99.90;;;;;;5011591;28;20160;-70
2022/09/26 06:58:11;;;;;;;11.80;4.07;;;10.30;99.90;;;;;;4998327;28;20120;-70
2022/09/26 07:00:37;;;;;;;10.38;4.60;;;10.30;99.90;;;;;;4994045;28;20306;-69
2022/09/26 07:03:07;;;;;;;11.88;4.30;;;10.30;99.90;;;;;;4978903;28;20555;-70
2022/09/26 07:05:34;;;;;;;11.73;4.82;;;10.30;99.90;;;;;;4994575;28;20049;-70
2022/09/26 07:08:14;;;;;;;13.45;4.40;;;10.60;99.90;;;;;;4981414;28;20050;-70
2022/09/26 07:10:39;;;;;;;9.95;3.83;;;10.40;99.90;;;;;;4986509;28;20061;-68
2022/09/26 07:13:08;;;;;;;8.82;3.78;;;10.50;99.90;;;;;;5012849;28;20042;-69
2022/09/26 07:15:35;;;;;;;9.38;3.92;;;10.40;99.90;;;;;;4997365;28;20077;-69
2022/09/26 07:18:02;;;;;;;8.30;3.45;;;10.40;99.90;;;;;;5014835;28;20073;-70
2022/09/26 07:20:35;;;;;;;10.50;3.80;;;10.50;99.90;;;;;;4999816;28;20056;-67
2022/09/26 07:23:01;;;;;;;9.43;4.18;;;10.50;99.90;;;;;;5019972;28;20045;-69
2022/09/26 07:25:30;;;;;;;11.18;4.03;;;10.50;99.90;;;;;;5020782;28;20409;-71
2022/09/26 07:27:56;;;;;;;10.07;3.58;;;10.50;99.90;;;;;;5012462;28;20042;-68
2022/09/26 07:30:22;;;;;;;11.20;3.88;;;10.50;99.90;;;;;;4996639;28;20505;-68
2022/09/26 07:32:47;;;;;;;8.88;3.58;;;10.50;99.90;;;;;;4994915;28;20413;-71
2022/09/26 07:35:16;;;;;;;9.30;3.47;;;10.50;99.90;;;;;;5011955;28;20068;-75
2022/09/26 07:37:42;;;;;;;10.55;4.80;;;10.50;99.90;;;;;;5008510;28;20507;-71
2022/09/26 07:40:09;;;;;;;10.27;3.20;;;10.50;99.90;;;;;;5013554;28;20060;-70
2022/09/26 07:42:37;;;;;;;8.82;2.63;;;11.00;99.90;;;;;;4998705;28;20033;-72
2022/09/26 07:45:04;;;;;;;7.50;2.80;;;10.50;99.90;;;;;;5015435;28;20050;-70
2022/09/26 07:50:18;;;;;;;8.13;3.10;;;10.40;99.90;;;;;;5012768;28;20050;-71
2022/09/26 07:52:45;;;;;;;8.48;3.05;;;10.40;99.90;;;;;;5013834;28;20501;-71
2022/09/26 07:55:16;;;;;;;9.27;3.75;;;10.40;99.90;;;;;;4978813;28;20053;-71
2022/09/26 07:57:41;;;;;;;8.40;3.03;;;10.40;99.90;;;;;;4976890;28;20096;-71
2022/09/26 08:00:12;;;;;;;7.32;3.28;;;10.40;99.90;;;;;;5017899;28;20084;-70
2022/09/26 08:02:41;;;;;;;8.80;3.17;;;10.50;99.90;;;;;;4992811;28;20100;-70
2022/09/26 08:05:08;;;;;;;7.95;3.20;;;10.50;99.90;;;;;;5014946;28;20054;-72
2022/09/26 08:07:35;;;;;;;8.32;2.63;;;10.50;99.90;;;;;;4993414;28;20050;-71
2022/09/26 08:10:04;;;;;;;9.43;3.13;;;10.50;99.90;;;;;;4996721;28;20041;-70
2022/09/26 08:12:38;;;;;;;7.15;2.72;;;10.50;99.90;;;;;;5001939;28;20046;-71
2022/09/26 08:15:05;;;;;;;6.57;2.55;;;10.60;99.90;;;;;;4981253;28;20045;-72
2022/09/26 08:17:31;;;;;;;10.15;2.85;;;10.60;99.90;;;;;;4992695;28;20050;-72
2022/09/26 08:19:58;;;;;;;8.48;2.65;;;10.70;99.90;;;;;;4996104;28;20456;-71
2022/09/26 08:22:23;;;;;;;8.57;2.50;;;10.70;99.90;;;;;;4996028;28;20045;-70
2022/09/26 08:24:49;;;;;;;8.25;3.05;;;10.70;99.90;;;;;;5013589;28;20049;-71
2022/09/26 08:27:16;;;;;;;6.50;2.58;;;10.70;99.90;;;;;;4997303;28;20060;-72
2022/09/26 08:29:48;;;;;;;7.18;2.60;;;10.80;99.90;;;;;;5027981;28;20034;-69
2022/09/26 08:32:15;;;;;;;6.35;2.33;;;10.90;99.90;;;;;;5002334;28;20053;-71
2022/09/26 08:34:41;;;;;;;10.98;3.28;;;11.00;99.90;;;;;;5014077;28;20126;-70
2022/09/26 08:37:06;;;;;;;5.78;2.60;;;11.00;99.90;;;;;;4977928;28;20486;-71
2022/09/26 08:39:33;;;;;;;7.63;2.83;;;11.10;99.90;;;;;;4995866;28;20048;-70
2022/09/26 08:42:28;;;;;;;10.60;2.83;;;11.10;99.90;;;;;;5014763;28;20041;-70
2022/09/26 08:48:15;;;;;;;7.85;2.70;;;11.20;99.90;;;;;;4992754;28;20045;-70
2022/09/26 08:50:49;;;;;;;10.77;2.92;;;11.20;99.90;;;;;;5011045;28;20096;-72
2022/09/26 08:53:21;;;;;;;7.18;2.38;;;11.30;99.90;;;;;;5012959;28;20438;-71
2022/09/26 08:55:48;;;;;;;10.38;2.72;;;11.30;99.90;;;;;;4980285;28;20063;-71
2022/09/26 08:58:25;;;;;;;6.57;2.63;;;11.40;99.90;;;;;;5013980;28;20038;-71
2022/09/26 09:00:59;;;;;;;10.77;3.10;;;11.30;99.90;;;;;;4996920;28;20092;-71
2022/09/26 09:03:33;;;;;;;7.18;2.13;;;11.10;99.90;;;;;;4984876;28;20505;-70
2022/09/26 09:06:11;;;;;;;6.82;2.42;;;11.10;99.90;;;;;;4997300;28;20095;-71
2022/09/26 09:09:06;;;;;;;6.68;2.42;;;11.10;99.90;;;;;;4998045;28;20427;-71
2022/09/26 09:11:43;;;;;;;7.40;2.80;;;11.10;99.90;;;;;;4922700;29;20142;-71
2022/09/26 09:14:26;;;;;;;8.45;2.67;;;11.00;99.90;;;;;;4925592;29;20066;-70
2022/09/26 09:17:16;;;;;;;6.88;2.30;;;11.00;99.90;;;;;;4937978;29;20058;-69
2022/09/26 09:20:03;;;;;;;8.85;2.88;;;11.10;99.90;;;;;;4917143;29;20130;-70
2022/09/26 09:22:50;;;;;;;7.22;2.30;;;11.00;99.90;;;;;;4906311;29;20168;-69
2022/09/26 09:25:27;;;;;;;6.80;2.42;;;11.10;99.90;;;;;;4917427;29;20059;-69
2022/09/26 09:28:11;;;;;;;8.05;2.60;;;11.10;99.90;;;;;;4937559;29;20490;-71
2022/09/26 09:30:42;;;;;;;10.30;2.90;;;11.30;99.90;;;;;;4936310;29;20035;-71
2022/09/26 09:33:13;;;;;;;8.57;2.25;;;11.30;99.90;;;;;;4934323;29;20051;-68
2022/09/26 09:35:55;;;;;;;9.23;2.70;;;11.60;99.90;;;;;;4933654;29;20554;-70
2022/09/26 09:38:30;;;;;;;9.82;2.60;;;11.30;99.90;;;;;;4937397;29;20154;-69
2022/09/26 09:41:27;;;;;;;8.88;3.00;;;11.30;99.90;;;;;;4936158;29;20082;-69
2022/09/26 09:43:55;;;;;;;8.20;2.65;;;11.40;99.90;;;;;;4933525;29;20073;-71
2022/09/26 09:46:27;;;;;;;8.00;2.40;;;11.40;99.90;;;;;;4934875;29;20048;-71
2022/09/26 09:48:56;;;;;;;;;;;11.50;99.90;;;;;;4987977;28;20060;-70
2022/09/26 09:51:22;;;;;;;9.23;2.80;;;11.50;99.90;;;;;;4995780;28;19921;-67
2022/09/26 09:53:59;;;;;;;7.35;3.10;;;11.50;99.90;;;;;;5015529;28;20390;-71
2022/09/26 09:56:44;;;;;;;7.03;2.90;;;11.50;99.90;;;;;;4995941;28;20497;-71
2022/09/26 09:59:29;;;;;;;6.47;2.47;;;11.50;99.90;;;;;;4998619;28;20050;-71
2022/09/26 10:02:36;;;;;;;8.48;2.53;;;11.50;99.90;;;;;;4978861;28;20057;-70
2022/09/26 10:05:22;;;;;;;12.20;2.80;;;11.50;99.90;;;;;;4917689;29;20147;-70
2022/09/26 10:07:51;;;;;;;7.72;2.92;;;11.50;99.90;;;;;;4932949;29;20076;-69
2022/09/26 10:10:23;;;;;;;8.52;2.80;;;11.50;99.90;;;;;;4897482;29;20055;-69
2022/09/26 10:12:50;;;;;;;;;;;11.60;99.90;;;;;;4917652;29;20087;-69
2022/09/26 10:15:25;;;;;;;9.80;2.97;;;11.50;99.90;;;;;;4917064;29;19931;-68
2022/09/26 10:18:04;;;;;;;7.95;2.70;;;11.80;99.90;;;;;;4900976;29;20056;-68
2022/09/26 10:20:36;;;;;;;8.95;2.92;;;11.50;99.90;;;;;;4914256;29;20556;-69
2022/09/26 10:23:10;;;;;;;8.95;2.83;;;11.60;99.90;;;;;;4917544;29;20543;-68
2022/09/26 10:25:36;;;;;;;6.72;2.50;;;11.60;99.90;;;;;;4917260;29;20047;-68
2022/09/26 10:28:04;;;;;;;9.90;2.72;;;11.70;99.90;;;;;;4933474;28;20071;-68
2022/09/26 10:30:45;;;;;;;8.40;2.88;;;11.60;99.90;;;;;;4934669;29;20558;-68
2022/09/26 10:33:24;;;;;;;8.68;2.70;;;11.50;99.90;;;;;;4939872;29;20118;-68
2022/09/26 10:35:52;;;;;;;10.00;3.05;;;11.70;99.90;;;;;;4915886;29;20063;-70
2022/09/26 10:38:22;;;;;;;9.05;3.00;;;11.50;99.90;;;;;;4917291;29;20052;-68
2022/09/26 10:40:54;;;;;;;7.53;2.90;;;11.50;99.90;;;;;;4909468;28;20493;-70
2022/09/26 10:43:36;;;;;;;6.93;2.60;;;11.50;99.90;;;;;;4999251;28;20061;-67
2022/09/26 10:46:11;;;;;;;9.57;2.95;;;11.40;99.90;;;;;;4995112;28;20128;-69
2022/09/26 10:48:50;;;;;;;12.63;3.35;;;11.40;99.90;;;;;;4997328;28;20560;-68
2022/09/26 10:51:26;;;;;;;8.68;3.15;;;11.30;99.90;;;;;;4995307;28;20041;-68
2022/09/26 10:54:03;;;;;;;7.28;3.42;;;11.40;99.90;;;;;;4994989;28;20058;-69
2022/09/26 10:56:34;;;;;;;13.10;3.25;;;11.30;99.90;;;;;;4996742;28;20068;-67
2022/09/26 10:59:07;;;;;;;9.05;3.10;;;11.40;99.90;;;;;;4998440;28;20107;-70
2022/09/26 11:01:41;;;;;;;7.72;2.95;;;11.40;99.90;;;;;;4997266;28;20409;-70
2022/09/26 11:07:41;;;;;;;9.32;2.90;;;11.40;99.90;;;;;;4997721;28;20061;-70
2022/09/26 11:10:13;;;;;;;6.70;2.63;;;11.40;99.90;;;;;;5012195;28;20044;-70
2022/09/26 11:12:55;;;;;;;9.48;3.30;;;11.30;99.90;;;;;;4978101;28;20097;-70
2022/09/26 11:15:22;;;;;;;8.48;3.10;;;11.40;99.90;;;;;;4997305;28;20378;-70
2022/09/26 11:17:52;;;;;;;8.82;3.25;;;11.30;99.90;;;;;;5015422;28;20050;-71
2022/09/26 11:20:36;;;;;;;10.05;2.92;;;11.40;99.90;;;;;;4995806;28;20508;-70
2022/09/26 11:23:08;;;;;;;9.77;3.30;;;11.30;99.90;;;;;;4995582;28;20046;-69
2022/09/26 11:25:47;;;;;;;9.85;3.83;;;11.30;99.90;;;;;;4995437;28;20061;-70
2022/09/26 11:28:27;;;;;;;8.18;3.65;;;11.30;99.90;;;;;;4979514;28;20087;-70
2022/09/26 11:30:59;;;;;;;8.98;3.38;;;11.30;99.90;;;;;;4995264;28;20058;-69
2022/09/26 11:33:25;;;;;;;8.95;3.42;;;11.40;99.90;;;;;;4994968;28;20057;-72
2022/09/26 11:36:34;;;;;;;11.35;3.42;;;11.50;99.90;;;;;;4994781;28;20498;-69
2022/09/26 11:39:29;;;;;;;10.07;3.85;;;11.30;99.90;;;;;;4927525;29;20067;-72
2022/09/26 11:42:16;;;;;;;8.55;3.05;;;11.30;99.90;;;;;;4898153;29;20135;-72
2022/09/26 11:44:50;;;;;;;11.82;3.65;;;11.30;99.90;;;;;;4897275;29;20131;-71
2022/09/26 11:47:38;;;;;;;11.65;3.92;;;11.50;99.90;;;;;;4916809;29;20154;-70
2022/09/26 11:50:22;;;;;;;9.07;3.92;;;11.30;99.90;;;;;;4915323;29;20058;-71
2022/09/26 11:52:48;;;;;;;7.30;3.13;;;11.30;99.90;;;;;;4929142;29;20543;-69
2022/09/26 11:55:19;;;;;;;8.55;3.70;;;11.30;99.90;;;;;;4897582;29;20056;-69
2022/09/26 11:58:00;;;;;;;8.13;3.72;;;11.30;99.90;;;;;;4899313;29;20088;-70
2022/09/26 12:00:57;;;;;;;8.27;3.60;;;11.30;99.90;;;;;;4896558;29;20138;-70
2022/09/26 12:03:55;;;;;;;9.02;3.47;;;11.30;99.90;;;;;;4917712;29;20056;-69
2022/09/26 12:06:55;;;;;;;8.93;3.60;;;11.30;99.90;;;;;;4917853;29;20063;-68
2022/09/26 12:09:50;;;;;;;7.68;3.45;;;11.30;99.90;;;;;;4937139;29;20056;-70
2022/09/26 12:12:30;;;;;;;8.70;3.67;;;11.30;99.90;;;;;;4930839;29;20102;-67
2022/09/26 12:15:19;;;;;;;9.20;3.88;;;11.30;99.90;;;;;;4939549;28;20177;-70
2022/09/26 12:17:52;;;;;;;10.05;4.13;;;11.30;99.90;;;;;;4948579;28;20054;-69
2022/09/26 12:20:27;;;;;;;8.18;4.18;;;11.20;99.90;;;;;;4933969;28;20066;-68
2022/09/26 12:23:17;;;;;;;8.55;3.95;;;11.20;99.90;;;;;;4934245;28;20113;-69
2022/09/26 12:26:25;;;;;;;11.00;4.30;;;11.20;99.90;;;;;;4941285;28;20070;-69
2022/09/26 12:29:26;;;;;;;8.25;3.95;;;11.30;99.90;;;;;;4896222;29;20052;-70
2022/09/26 12:32:00;;;;;;;10.07;4.40;;;11.20;99.90;;;;;;4916343;28;20064;-70
2022/09/26 12:34:44;;;;;;;11.35;5.00;;;11.30;99.90;;;;;;4919422;29;20481;-69
2022/09/26 12:38:04;;;;;;;9.85;4.18;;;11.30;99.90;;;;;;4923383;29;20203;-68
2022/09/26 12:41:01;;;;;;;9.65;4.00;;;11.30;99.90;;;;;;4868137;29;20451;-70
2022/09/26 12:43:48;;;;;;;8.18;3.72;;;11.30;99.90;;;;;;4884508;29;20065;-70
2022/09/26 12:46:44;;;;;;;8.00;3.65;;;11.30;99.90;;;;;;4887736;29;20067;-70
2022/09/26 12:49:13;;;;;;;8.65;3.88;;;11.30;99.90;;;;;;4885654;29;20057;-70
2022/09/26 12:51:39;;;;;;;8.82;4.07;;;11.30;99.90;;;;;;4885775;29;20057;-70
2022/09/26 12:54:23;;;;;;;9.75;4.03;;;11.30;99.90;;;;;;4890784;29;20077;-69
2022/09/26 12:57:12;;;;;;;9.35;4.00;;;11.30;99.90;;;;;;4886778;29;20037;-68
2022/09/26 12:59:59;;;;;;;9.80;3.72;;;11.40;99.90;;;;;;4885417;29;20096;-69
2022/09/26 13:02:50;;;;;;;9.50;3.40;;;11.40;99.90;;;;;;4885547;29;20508;-69
2022/09/26 13:05:43;;;;;;;7.72;3.13;;;11.40;99.90;;;;;;4891399;29;20059;-70
2022/09/26 13:08:40;;;;;;;8.73;3.10;;;11.50;99.90;;;;;;4938473;29;20048;-69
2022/09/26 13:11:47;;;;;;;6.28;2.85;;;11.40;99.90;;;;;;4960253;28;20065;-71
2022/09/26 13:14:47;;;;;;;8.85;3.00;;;11.40;99.90;;;;;;4919683;29;20050;-70
2022/09/26 13:17:19;;;;;;;6.68;2.47;;;11.40;99.90;;;;;;4851775;29;20417;-70
2022/09/26 13:19:50;;;;;;;7.07;2.80;;;11.50;99.90;;;;;;4865010;29;20421;-71
2022/09/26 13:22:35;;;;;;;6.30;2.78;;;11.50;99.90;;;;;;4851768;29;20681;-68
2022/09/26 13:25:20;;;;;;;8.10;2.90;;;11.50;99.90;;;;;;4866407;29;20070;-70
2022/09/26 13:28:03;;;;;;;7.80;2.60;;;11.50;99.90;;;;;;4850175;29;20086;-72
2022/09/26 13:30:38;;;;;;;7.72;2.72;;;11.60;99.90;;;;;;4868202;29;20061;-72